This is the latest recevied weather packets stored in our database for station/object N8SDR. If no packets are shown the sender has not sent any weather packets the latest 1 day(s).
| Time | Temp. | Humidity | Pressure | Rain* | Wind** | Luminosity | Snow |
|---|---|---|---|---|---|---|---|
| 1778083123 | 13.33° C | 67% | 1009.9 hPa | 0 mm | - | 555 W/m² | - |
| 1778079273 | 11.67° C | 70% | 1009.3 hPa | 0 mm | - | 579 W/m² | - |
| 1778076552 | 10.56° C | 79% | 1009 hPa | 0 mm | - | 180 W/m² | - |
| 1778075035 | 10° C | 86% | 1008.6 hPa | 0 mm | - | 212 W/m² | - |
| 1778074732 | 9.44° C | 86% | 1008.7 hPa | 0 mm | - | 245 W/m² | - |
| 1778074125 | 9.44° C | 88% | 1008.9 hPa | 0 mm | - | 235 W/m² | - |
| 1778073521 | 9.44° C | 88% | 1008.8 hPa | 0 mm | - | 130 W/m² | - |
| 1778072006 | 8.89° C | 89% | 1008.4 hPa | 0 mm | - | 113 W/m² | - |
| 1778071401 | 8.89° C | 90% | 1008.3 hPa | 0 mm | - | 117 W/m² | - |
| 1778070797 | 8.33° C | 91% | 1008.2 hPa | 0 mm | - | 163 W/m² | - |
| 1778070494 | 8.33° C | 91% | 1008.3 hPa | 0 mm | - | 138 W/m² | - |
| 1778070191 | 8.33° C | 92% | 1007.7 hPa | 0 mm | - | 138 W/m² | - |
| 1778069889 | 8.33° C | 92% | 1007.9 hPa | 0 mm | - | 123 W/m² | - |
| 1778069283 | 7.78° C | 93% | 1007.9 hPa | 0 mm | - | 95 W/m² | - |
| 1778068678 | 7.78° C | 94% | 1007.4 hPa | 0 mm | - | 68 W/m² | - |
| 1778068376 | 7.78° C | 94% | 1007.6 hPa | 0 mm | - | 63 W/m² | - |
| 1778067771 | 7.78° C | 95% | 1007.2 hPa | 0 mm | - | 45 W/m² | - |
| 1778065652 | 7.22° C | 99% | 1006.5 hPa | 0 mm | - | 16 W/m² | - |
| 1778064139 | 6.67° C | 99% | 1006.4 hPa | 0 mm | - | 2 W/m² | - |
| 1778063836 | 6.67° C | 99% | 1006.2 hPa | 0 mm | - | 0 W/m² | - |
| 1778062625 | 6.67° C | 99% | 1005.9 hPa | 0 mm | - | 0 W/m² | - |
| 1778062020 | 6.67° C | 99% | 1005.9 hPa | 0 mm | - | 0 W/m² | - |
| 1778061416 | 6.67° C | 99% | 1005.4 hPa | 0 mm | - | 0 W/m² | - |
| 1778061112 | 6.67° C | 99% | 1005.8 hPa | 0 mm | - | 0 W/m² | - |
| 1778060206 | 6.11° C | 99% | 1006 hPa | 0 mm | - | 0 W/m² | - |
* Rain latest hour (hover to see other rain measurements)
** Current wind speed in m/s (hover to see current wind gust speed)